Time;durP1;ratioP1;P1;durP2;ratioP2;P2;SDS_P1;SDS_P2;PMS_P1;PMS_P2;Temp;Humidity;BMP_temperature;BMP_pressure;BME280_temperature;BME280_humidity;BME280_pressure;Samples;Min_cycle;Max_cycle;Signal;HPM_P1;HPM_P2
2023/09/30 00:00:29;;;;;;;;;;;11.90;99.90;;;;;;5056160;28;19909;-55
2023/09/30 00:02:55;;;;;;;;;;;11.90;99.90;;;;;;5056200;28;19916;-54
2023/09/30 00:05:21;;;;;;;;;;;11.90;99.90;;;;;;5056288;28;19908;-55
2023/09/30 00:07:46;;;;;;;;;;;11.90;99.90;;;;;;5056069;28;20251;-55
2023/09/30 00:10:12;;;;;;;;;;;11.90;99.90;;;;;;5056050;28;19951;-55
2023/09/30 00:12:38;;;;;;;;;;;11.90;99.90;;;;;;5055963;28;19913;-54
2023/09/30 00:15:04;;;;;;;;;;;11.90;99.90;;;;;;5056158;28;19913;-55
2023/09/30 00:17:30;;;;;;;;;;;11.90;99.90;;;;;;5056198;28;19909;-54
2023/09/30 00:19:56;;;;;;;;;;;11.90;99.90;;;;;;5055841;28;19912;-54
2023/09/30 00:22:21;;;;;;;;;;;11.80;99.90;;;;;;5055800;28;19995;-54
2023/09/30 00:24:48;;;;;;;;;;;11.80;99.90;;;;;;5056096;28;19909;-54
2023/09/30 00:27:13;;;;;;;;;;;11.80;99.90;;;;;;5055859;28;20262;-54
2023/09/30 00:29:39;;;;;;;;;;;11.80;99.90;;;;;;5056245;28;19915;-54
2023/09/30 00:32:05;;;;;;;;;;;11.80;99.90;;;;;;5038081;28;19922;-55
2023/09/30 00:34:34;;;;;;;;;;;11.80;99.90;;;;;;5055859;28;20004;-54
2023/09/30 00:37:01;;;;;;;;;;;11.80;99.90;;;;;;5055617;28;19909;-55
2023/09/30 00:39:30;;;;;;;;;;;11.70;99.90;;;;;;5038059;28;19963;-54
2023/09/30 00:41:58;;;;;;;;;;;11.70;99.90;;;;;;5054511;28;20434;-54
2023/09/30 00:44:27;;;;;;;;;;;11.70;99.90;;;;;;5055730;28;19951;-54
2023/09/30 00:46:54;;;;;;;;;;;11.70;99.90;;;;;;5055708;28;19999;-54
2023/09/30 00:49:21;;;;;;;;;;;11.70;99.90;;;;;;5037875;28;19944;-54
2023/09/30 00:51:47;;;;;;;;;;;11.70;99.90;;;;;;5055748;28;19915;-55
2023/09/30 00:54:13;;;;;;;;;;;11.60;99.90;;;;;;5055264;28;19940;-55
2023/09/30 00:56:45;;;;;;;;;;;11.60;99.90;;;;;;5055711;28;19917;-54
2023/09/30 00:59:14;;;;;;;;;;;11.60;99.90;;;;;;5049737;28;19908;-55
2023/09/30 01:01:43;;;;;;;;;;;11.60;99.90;;;;;;5075741;28;20003;-54
2023/09/30 01:04:10;;;;;;;;;;;11.50;99.90;;;;;;5075638;28;19909;-54
2023/09/30 01:06:37;;;;;;;;;;;11.60;99.90;;;;;;5074196;28;20277;-54
2023/09/30 01:09:03;;;;;;;;;;;11.70;99.90;;;;;;5075527;28;19908;-54
2023/09/30 01:11:29;;;;;;;;;;;11.60;99.90;;;;;;5075437;28;19916;-55
2023/09/30 01:13:57;;;;;;;;;;;11.50;99.90;;;;;;5075330;28;19919;-54
2023/09/30 01:16:23;;;;;;;;;;;11.50;99.90;;;;;;5075355;28;19947;-54
2023/09/30 01:18:49;;;;;;;;;;;11.60;99.90;;;;;;5057347;28;19913;-54
2023/09/30 01:21:15;;;;;;;;;;;11.50;99.90;;;;;;5075432;28;19951;-54
2023/09/30 01:23:43;;;;;;;;;;;11.50;99.90;;;;;;5077714;28;19908;-54
2023/09/30 01:26:10;;;;;;;;;;;11.50;99.90;;;;;;5079339;28;20003;-54
2023/09/30 01:28:36;;;;;;;;;;;11.50;99.90;;;;;;5079269;28;20363;-54
2023/09/30 01:31:02;;;;;;;;;;;11.50;99.90;;;;;;5061347;28;20345;-54
2023/09/30 01:33:28;;;;;;;;;;;11.50;99.90;;;;;;5077857;28;20046;-54
2023/09/30 01:35:54;;;;;;;;;;;11.40;99.90;;;;;;5079387;28;20418;-54
2023/09/30 01:38:20;;;;;;;;;;;11.30;99.90;;;;;;5079119;28;19908;-54
2023/09/30 01:40:46;;;;;;;;;;;11.10;99.90;;;;;;5077141;28;19909;-54
2023/09/30 01:43:13;;;;;;;;;;;11.10;99.90;;;;;;5079118;28;19908;-54
2023/09/30 01:45:40;;;;;;;;;;;11.10;99.90;;;;;;5077714;28;19908;-54
2023/09/30 01:48:06;;;;;;;;;;;11.20;99.90;;;;;;5060985;28;19908;-54
2023/09/30 01:50:32;;;;;;;;;;;11.20;99.90;;;;;;5079154;28;19909;-54
2023/09/30 01:52:58;;;;;;;;;;;11.20;99.90;;;;;;5078728;28;19919;-54
2023/09/30 01:55:24;;;;;;;;;;;11.20;99.90;;;;;;5078574;28;19991;-54
2023/09/30 01:57:50;;;;;;;;;;;11.20;99.90;;;;;;5059883;28;19908;-54
2023/09/30 02:00:17;;;;;;;;;;;11.10;99.90;;;;;;5040467;28;20015;-54
2023/09/30 02:02:44;;;;;;;;;;;11.10;99.90;;;;;;5040781;28;20047;-54
2023/09/30 02:05:09;;;;;;;;;;;11.00;99.90;;;;;;5058621;28;19908;-54
2023/09/30 02:07:35;;;;;;;;;;;11.00;99.90;;;;;;5040596;28;19975;-54
2023/09/30 02:10:01;;;;;;;;;;;11.00;99.90;;;;;;5040354;28;19908;-54
2023/09/30 02:12:30;;;;;;;;;;;10.90;99.90;;;;;;5058459;28;19999;-54
2023/09/30 02:14:58;;;;;;;;;;;11.00;99.90;;;;;;5058380;28;20267;-54
2023/09/30 02:17:24;;;;;;;;;;;11.00;99.90;;;;;;5040523;28;19908;-54
2023/09/30 02:19:49;;;;;;;;;;;11.00;99.90;;;;;;5058387;28;20349;-54
2023/09/30 02:22:16;;;;;;;;;;;11.00;99.90;;;;;;5058247;28;20421;-54
2023/09/30 02:24:41;;;;;;;;;;;11.00;99.90;;;;;;5057991;28;19963;-54
2023/09/30 02:27:07;;;;;;;;;;;11.00;99.90;;;;;;5040417;28;19912;-54
2023/09/30 02:29:33;;;;;;;;;;;11.00;99.90;;;;;;5058157;28;19909;-54
2023/09/30 02:31:59;;;;;;;;;;;11.00;99.90;;;;;;5058218;28;19908;-54
2023/09/30 02:34:26;;;;;;;;;;;11.10;99.90;;;;;;5039985;28;19913;-54
2023/09/30 02:36:55;;;;;;;;;;;11.20;99.90;;;;;;5058132;28;19911;-54
2023/09/30 02:39:21;;;;;;;;;;;11.20;99.90;;;;;;5057650;28;19935;-55
2023/09/30 02:41:49;;;;;;;;;;;11.00;99.90;;;;;;5058077;28;20374;-54
2023/09/30 02:44:15;;;;;;;;;;;11.00;99.90;;;;;;5057927;28;19909;-54
2023/09/30 02:46:41;;;;;;;;;;;11.00;99.90;;;;;;5039942;28;20277;-54
2023/09/30 02:49:07;;;;;;;;;;;10.90;99.90;;;;;;5058210;28;19920;-54
2023/09/30 02:51:33;;;;;;;;;;;10.90;99.90;;;;;;5039942;28;19909;-54
2023/09/30 02:53:59;;;;;;;;;;;10.80;99.90;;;;;;5057299;28;19908;-54
2023/09/30 02:56:26;;;;;;;;;;;10.90;99.90;;;;;;5057701;28;19916;-54
2023/09/30 02:58:52;;;;;;;;;;;10.90;99.90;;;;;;5048983;28;19915;-54
2023/09/30 03:01:18;;;;;;;;;;;10.90;99.90;;;;;;5076765;28;20369;-54
2023/09/30 03:03:46;;;;;;;;;;;10.90;99.90;;;;;;5077572;28;19911;-54
2023/09/30 03:06:12;;;;;;;;;;;11.00;99.90;;;;;;5076039;28;19931;-55
2023/09/30 03:08:40;;;;;;;;;;;10.90;99.90;;;;;;5077482;28;19956;-54
2023/09/30 03:11:07;;;;;;;;;;;10.90;99.90;;;;;;5077462;28;19908;-54
2023/09/30 03:13:33;;;;;;;;;;;10.90;99.90;;;;;;5077215;28;19917;-54
2023/09/30 03:16:01;;;;;;;;;;;10.90;99.90;;;;;;5077267;28;19973;-54
2023/09/30 03:18:28;;;;;;;;;;;10.90;99.90;;;;;;5077303;28;19908;-54
2023/09/30 03:21:00;;;;;;;;;;;10.80;99.90;;;;;;5076499;28;19908;-54
2023/09/30 03:23:30;;;;;;;;;;;10.80;99.90;;;;;;5077043;28;19908;-54
2023/09/30 03:25:56;;;;;;;;;;;10.80;99.90;;;;;;5077022;28;20365;-54
2023/09/30 03:28:22;;;;;;;;;;;10.80;99.90;;;;;;5076940;28;20272;-54
2023/09/30 03:30:48;;;;;;;;;;;10.70;99.90;;;;;;5077140;28;20001;-54
2023/09/30 03:33:14;;;;;;;;;;;10.80;99.90;;;;;;5076858;28;20011;-54
2023/09/30 03:35:41;;;;;;;;;;;10.70;99.90;;;;;;5076745;28;19908;-54
2023/09/30 03:38:09;;;;;;;;;;;10.70;99.90;;;;;;5076901;28;19984;-54
2023/09/30 03:40:38;;;;;;;;;;;10.70;99.90;;;;;;5076398;28;19915;-54
2023/09/30 03:43:05;;;;;;;;;;;10.70;99.90;;;;;;5076685;28;19908;-54
2023/09/30 03:45:32;;;;;;;;;;;10.70;99.90;;;;;;5076255;28;19961;-54
2023/09/30 03:47:58;;;;;;;;;;;10.70;99.90;;;;;;5076596;28;19908;-54
2023/09/30 03:50:24;;;;;;;;;;;10.80;99.90;;;;;;5076623;28;19913;-54
2023/09/30 03:52:50;;;;;;;;;;;10.70;99.90;;;;;;5076278;28;19995;-54
2023/09/30 03:55:17;;;;;;;;;;;10.70;99.90;;;;;;5076546;28;19908;-54
2023/09/30 03:57:47;;;;;;;;;;;10.60;99.90;;;;;;5076409;28;20484;-54
2023/09/30 04:00:18;;;;;;;;;;;10.50;99.90;;;;;;5056506;28;20461;-54
2023/09/30 04:02:48;;;;;;;;;;;10.40;99.90;;;;;;5056403;28;20488;-54
2023/09/30 04:05:14;;;;;;;;;;;10.40;99.90;;;;;;5056413;28;20011;-54
2023/09/30 04:07:42;;;;;;;;;;;10.40;99.90;;;;;;5056234;28;19912;-54
2023/09/30 04:10:08;;;;;;;;;;;10.40;99.90;;;;;;5056324;28;19908;-54
2023/09/30 04:12:34;;;;;;;;;;;10.40;99.90;;;;;;5056100;28;19911;-54
2023/09/30 04:15:00;;;;;;;;;;;10.40;99.90;;;;;;5056119;28;19912;-54
2023/09/30 04:17:27;;;;;;;;;;;10.40;99.90;;;;;;5056271;28;19951;-54
2023/09/30 04:19:53;;;;;;;;;;;10.30;99.90;;;;;;5055729;28;19915;-54
2023/09/30 04:22:20;;;;;;;;;;;10.30;99.90;;;;;;5055527;28;19912;-54
2023/09/30 04:24:46;;;;;;;;;;;10.30;99.90;;;;;;5055778;28;19992;-54
2023/09/30 04:27:12;;;;;;;;;;;10.30;99.90;;;;;;5056033;28;19975;-54
2023/09/30 04:29:39;;;;;;;;;;;10.30;99.90;;;;;;5055928;28;19912;-54
2023/09/30 04:32:06;;;;;;;;;;;10.20;99.90;;;;;;5055962;28;19909;-54
2023/09/30 04:34:31;;;;;;;;;;;10.20;99.90;;;;;;5055899;28;19980;-54
2023/09/30 04:36:57;;;;;;;;;;;10.20;99.90;;;;;;5056168;28;19959;-54
2023/09/30 04:39:23;;;;;;;;;;;10.10;99.90;;;;;;5055657;28;19904;-54
2023/09/30 04:41:49;;;;;;;;;;;10.10;99.90;;;;;;5055881;28;20011;-54
2023/09/30 04:44:15;;;;;;;;;;;10.00;99.90;;;;;;5055676;28;19908;-54
2023/09/30 04:46:45;;;;;;;;;;;10.00;99.90;;;;;;5055883;28;19912;-54
2023/09/30 04:49:13;;;;;;;;;;;10.00;99.90;;;;;;5055861;28;20267;-54
2023/09/30 04:51:39;;;;;;;;;;;10.00;99.90;;;;;;5055094;28;19985;-54
2023/09/30 04:54:08;;;;;;;;;;;10.00;99.90;;;;;;5055643;28;19952;-54
2023/09/30 04:56:35;;;;;;;;;;;10.00;99.90;;;;;;5055744;28;19908;-54
2023/09/30 04:59:01;;;;;;;;;;;10.00;99.90;;;;;;5069539;28;19908;-54
2023/09/30 05:01:27;;;;;;;;;;;10.10;99.90;;;;;;5079511;28;19908;-54
2023/09/30 05:03:53;;;;;;;;;;;10.00;99.90;;;;;;5079823;28;19931;-54
2023/09/30 05:06:19;;;;;;;;;;;10.10;99.90;;;;;;5079581;28;19912;-55
2023/09/30 05:08:44;;;;;;;;;;;10.30;99.90;;;;;;5079790;28;19909;-54
2023/09/30 05:11:10;;;;;;;;;;;10.50;99.90;;;;;;5079732;28;19908;-54
2023/09/30 05:13:36;;;;;;;;;;;10.70;99.90;;;;;;5079280;28;19915;-54
2023/09/30 05:16:03;;;;;;;;;;;10.90;99.90;;;;;;5079578;28;19912;-54
2023/09/30 05:18:29;;;;;;;;;;;11.30;99.90;;;;;;5079634;28;19922;-54
2023/09/30 05:20:56;;;;;;;;;;;11.60;99.90;;;;;;5078725;28;19915;-54
2023/09/30 05:23:22;;;;;;;;;;;12.20;99.90;;;;;;5079073;28;19908;-54
2023/09/30 05:25:48;;;;;;;;;;;12.40;99.90;;;;;;5079285;28;19909;-54
2023/09/30 05:28:15;;;;;;;;;;;12.40;99.90;;;;;;5079636;28;19912;-54
2023/09/30 05:30:41;;;;;;;;;;;12.40;99.90;;;;;;5079397;28;19909;-54
2023/09/30 05:33:06;;;;;;;;;;;12.50;99.90;;;;;;5079159;28;19905;-54
2023/09/30 05:35:33;;;;;;;;;;;12.60;99.90;;;;;;5079218;28;19912;-54
2023/09/30 05:37:59;;;;;;;;;;;12.80;99.90;;;;;;5078886;28;20176;-54
2023/09/30 05:40:25;;;;;;;;;;;12.90;99.90;;;;;;5079121;28;20129;-54
2023/09/30 05:42:53;;;;;;;;;;;12.80;99.90;;;;;;5078966;28;20448;-54
2023/09/30 05:45:18;;;;;;;;;;;12.80;99.90;;;;;;5079128;28;20007;-54
2023/09/30 05:47:44;;;;;;;;;;;12.90;99.90;;;;;;5078992;28;19948;-54
2023/09/30 05:50:17;;;;;;;;;;;13.20;99.90;;;;;;5078130;28;19957;-54
2023/09/30 05:52:44;;;;;;;;;;;13.20;99.90;;;;;;5078650;28;19955;-54
2023/09/30 05:55:10;;;;;;;;;;;13.20;99.90;;;;;;5079131;28;19912;-54
2023/09/30 05:57:36;;;;;;;;;;;13.40;99.90;;;;;;5078814;28;19916;-54
2023/09/30 06:00:20;;;;;;;;;;;14.00;99.90;;;;;;5059756;28;19909;-55
2023/09/30 06:02:47;;;;;;;;;;;14.00;99.90;;;;;;5058753;28;20282;-55
2023/09/30 06:05:15;;;;;;;;;;;14.40;99.90;;;;;;5058656;28;19961;-54
2023/09/30 06:07:43;;;;;;;;;;;14.70;99.90;;;;;;5058471;28;20062;-55
2023/09/30 06:10:09;;;;;;;;;;;14.80;99.90;;;;;;5058144;28;19946;-55
2023/09/30 06:12:35;;;;;;;;;;;15.00;99.90;;;;;;5058483;28;19909;-55
2023/09/30 06:15:02;;;;;;;;;;;15.20;99.90;;;;;;5058458;28;19912;-55
2023/09/30 06:17:28;;;;;;;;;;;15.40;99.90;;;;;;5058506;28;19905;-55
2023/09/30 06:19:54;;;;;;;;;;;15.70;99.90;;;;;;5057776;28;19919;-55
2023/09/30 06:22:21;;;;;;;;;;;16.00;99.90;;;;;;5057817;28;19909;-55
2023/09/30 06:24:48;;;;;;;;;;;16.20;99.90;;;;;;5058173;28;20393;-55
2023/09/30 06:27:14;;;;;;;;;;;16.20;99.80;;;;;;5058219;28;19912;-55
2023/09/30 06:29:40;;;;;;;;;;;16.50;99.70;;;;;;5058286;28;19915;-55
2023/09/30 06:32:07;;;;;;;;;;;17.00;98.80;;;;;;5058140;28;19955;-54
2023/09/30 06:34:34;;;;;;;;;;;17.10;97.70;;;;;;5058038;28;19912;-55
2023/09/30 06:37:00;;;;;;;;;;;17.40;97.50;;;;;;5058130;28;19912;-55
2023/09/30 06:39:25;;;;;;;;;;;17.50;96.60;;;;;;5057540;28;20286;-55
2023/09/30 06:41:51;;;;;;;;;;;17.80;96.70;;;;;;5057696;28;20274;-55
2023/09/30 06:44:17;;;;;;;;;;;18.00;95.60;;;;;;5039777;28;19905;-55
2023/09/30 06:46:43;;;;;;;;;;;18.00;94.70;;;;;;5057895;28;19909;-55
2023/09/30 06:49:10;;;;;;;;;;;18.30;94.80;;;;;;5057859;28;19919;-55
2023/09/30 06:51:36;;;;;;;;;;;18.50;94.80;;;;;;5057543;28;19913;-55
2023/09/30 06:54:06;;;;;;;;;;;18.30;93.60;;;;;;5057649;28;19915;-55
2023/09/30 06:56:32;;;;;;;;;;;18.90;93.30;;;;;;5057552;28;19909;-55
2023/09/30 06:58:59;;;;;;;;;;;19.30;91.70;;;;;;5067694;28;19979;-55
2023/09/30 07:01:25;;;;;;;;;;;19.50;89.90;;;;;;5077597;28;20250;-55
2023/09/30 07:03:51;;;;;;;;;;;19.20;90.90;;;;;;5077517;28;19915;-55
2023/09/30 07:06:26;;;;;;;;;;;19.70;91.20;;;;;;5077463;28;19904;-55
2023/09/30 07:08:52;;;;;;;;;;;20.30;88.60;;;;;;5077518;28;19920;-55
2023/09/30 07:11:33;;;;;;;;;;;20.10;87.50;;;;;;5077476;28;19943;-55
2023/09/30 07:14:00;;;;;;;;;;;20.80;87.30;;;;;;5077104;28;20363;-55
2023/09/30 07:16:26;;;;;;;;;;;21.20;81.50;;;;;;5077321;28;19943;-55
2023/09/30 07:18:52;;;;;;;;;;;21.30;80.40;;;;;;5077346;28;20366;-55
2023/09/30 07:21:18;;;;;;;;;;;21.40;78.80;;;;;;5075497;28;19931;-55
2023/09/30 07:23:44;;;;;;;;;;;21.50;77.30;;;;;;5077192;28;19912;-55
2023/09/30 07:26:09;;;;;;;;;;;21.60;76.80;;;;;;5077613;28;19920;-55
2023/09/30 07:28:35;;;;;;;;;;;21.60;74.10;;;;;;5077144;28;20417;-55
2023/09/30 07:31:01;;;;;;;;;;;21.60;74.10;;;;;;5076972;28;19913;-55
2023/09/30 07:33:27;;;;;;;;;;;21.80;73.50;;;;;;5076669;28;19912;-55
2023/09/30 07:35:55;;;;;;;;;;;21.90;72.80;;;;;;5077503;28;19943;-55
2023/09/30 07:38:22;;;;;;;;;;;21.70;72.30;;;;;;5076784;28;19908;-55
2023/09/30 07:40:48;;;;;;;;;;;21.70;71.60;;;;;;5076882;28;20349;-55
2023/09/30 07:43:14;;;;;;;;;;;22.20;72.40;;;;;;5076770;28;19909;-55
2023/09/30 07:45:40;;;;;;;;;;;22.60;70.40;;;;;;5076677;28;19911;-55
2023/09/30 07:48:09;;;;;;;;;;;22.60;69.20;;;;;;5076674;28;19909;-55
2023/09/30 07:50:36;;;;;;;;;;;22.90;70.00;;;;;;5075702;28;19922;-55
2023/09/30 07:53:01;;;;;;;;;;;23.60;65.80;;;;;;5076448;28;20353;-55
2023/09/30 07:55:27;;;;;;;;;;;23.40;65.30;;;;;;5076541;28;19956;-55
2023/09/30 07:57:53;;;;;;;;;;;23.90;66.30;;;;;;5075140;28;19915;-55
2023/09/30 08:00:21;;;;;;;;;;;23.80;61.00;;;;;;5056493;28;19967;-55
2023/09/30 08:02:47;;;;;;;;;;;24.10;60.10;;;;;;5056398;28;19909;-55
2023/09/30 08:05:13;;;;;;;;;;;24.20;59.50;;;;;;5056374;28;19916;-55
2023/09/30 08:07:38;;;;;;;;;;;24.60;60.30;;;;;;5056218;28;20366;-55
2023/09/30 08:10:06;;;;;;;;;;;24.60;58.40;;;;;;5056311;28;19908;-55
2023/09/30 08:12:32;;;;;;;;;;;24.90;57.90;;;;;;5056161;28;19908;-55
2023/09/30 08:14:58;;;;;;;;;;;25.10;57.90;;;;;;5056225;28;19912;-55
2023/09/30 08:17:24;;;;;;;;;;;25.10;54.80;;;;;;5056246;28;20376;-55
2023/09/30 08:19:49;;;;;;;;;;;24.80;56.50;;;;;;5055787;28;19909;-56
2023/09/30 08:22:15;;;;;;;;;;;25.00;56.70;;;;;;5056155;28;19909;-55
2023/09/30 08:24:41;;;;;;;;;;;25.10;57.10;;;;;;5056053;28;19935;-55
2023/09/30 08:27:07;;;;;;;;;;;25.30;54.50;;;;;;5056233;28;19908;-55
2023/09/30 08:29:36;;;;;;;;;;;24.40;53.90;;;;;;5056048;28;19913;-55
2023/09/30 08:32:02;;;;;;;;;;;24.70;57.40;;;;;;5055835;28;19912;-55
2023/09/30 08:34:29;;;;;;;;;;;26.00;56.40;;;;;;5055912;28;20389;-55
2023/09/30 08:36:54;;;;;;;;;;;26.20;52.30;;;;;;5055880;28;20324;-55
2023/09/30 08:39:20;;;;;;;;;;;26.00;51.10;;;;;;5055685;28;19908;-56
2023/09/30 08:41:46;;;;;;;;;;;25.20;51.70;;;;;;5055701;28;20370;-55
2023/09/30 08:44:12;;;;;;;;;;;25.50;53.90;;;;;;5055779;28;19904;-55
2023/09/30 08:46:39;;;;;;;;;;;25.90;51.00;;;;;;5055972;28;19935;-56
2023/09/30 08:49:08;;;;;;;;;;;26.00;50.50;;;;;;5055682;28;19909;-55
2023/09/30 08:51:35;;;;;;;;;;;26.70;49.50;;;;;;5055168;28;19908;-55
2023/09/30 08:54:03;;;;;;;;;;;26.60;49.80;;;;;;5055838;28;20354;-55
2023/09/30 08:56:32;;;;;;;;;;;26.90;50.00;;;;;;5055640;28;19912;-56
2023/09/30 08:59:00;;;;;;;;;;;27.20;47.90;;;;;;5055659;28;20002;-56
2023/09/30 09:01:29;;;;;;;;;;;27.50;49.00;;;;;;5055446;28;19997;-56
2023/09/30 09:03:55;;;;;;;;;;;27.60;46.70;;;;;;5055574;28;19908;-56
2023/09/30 09:06:22;;;;;;;;;;;28.60;45.20;;;;;;5055491;28;19962;-56
2023/09/30 09:08:48;;;;;;;;;;;27.90;42.20;;;;;;5055515;28;19908;-56
2023/09/30 09:11:17;;;;;;;;;;;27.80;43.40;;;;;;5055663;28;20012;-56
2023/09/30 09:13:50;;;;;;;;;;;28.00;44.70;;;;;;5055253;28;19999;-56
2023/09/30 09:16:20;;;;;;;;;;;29.00;41.50;;;;;;5055485;28;19913;-56
2023/09/30 09:18:47;;;;;;;;;;;29.20;39.80;;;;;;5055393;28;19912;-56
2023/09/30 09:21:14;;;;;;;;;;;28.80;39.00;;;;;;5055203;28;19909;-56
2023/09/30 09:23:44;;;;;;;;;;;28.50;40.60;;;;;;5055611;28;19951;-56
2023/09/30 09:26:13;;;;;;;;;;;28.70;40.50;;;;;;5055423;28;19912;-56
2023/09/30 09:28:39;;;;;;;;;;;29.10;38.10;;;;;;5055403;28;20041;-56
2023/09/30 09:31:25;;;;;;;;;;;29.40;40.50;;;;;;5055279;28;19919;-56
2023/09/30 09:33:52;;;;;;;;;;;29.50;35.50;;;;;;5055267;28;19912;-56
2023/09/30 09:36:19;;;;;;;;;;;29.80;36.00;;;;;;5037396;28;19916;-56
2023/09/30 09:38:53;;;;;;;;;;;29.70;35.00;;;;;;5055289;28;19908;-56
2023/09/30 09:41:19;;;;;;;;;;;30.60;33.10;;;;;;5055255;28;19932;-56
2023/09/30 09:43:48;;;;;;;;;;;30.30;35.00;;;;;;5056041;28;20285;-56
2023/09/30 09:46:13;;;;;;;;;;;30.00;31.40;;;;;;5058923;28;20378;-56
2023/09/30 09:48:40;;;;;;;;;;;30.40;32.30;;;;;;5058814;28;19916;-56
2023/09/30 09:51:07;;;;;;;;;;;30.30;33.30;;;;;;5058815;28;19915;-56
2023/09/30 09:53:38;;;;;;;;;;;30.60;31.50;;;;;;5058893;28;19924;-56
2023/09/30 09:56:07;;;;;;;;;;;30.90;29.30;;;;;;5058744;28;19966;-56
2023/09/30 09:58:34;;;;;;;;;;;30.50;31.60;;;;;;5065493;28;19916;-56
2023/09/30 10:01:01;;;;;;;;;;;30.60;29.10;;;;;;5078506;28;19924;-56
2023/09/30 10:03:27;;;;;;;;;;;30.70;29.60;;;;;;5078696;28;20269;-56
2023/09/30 10:05:53;;;;;;;;;;;30.40;30.40;;;;;;5078416;28;19908;-56
2023/09/30 10:08:20;;;;;;;;;;;30.50;28.90;;;;;;5078478;28;19938;-56
2023/09/30 10:10:46;;;;;;;;;;;31.20;28.90;;;;;;5078591;28;19931;-56
2023/09/30 10:13:30;;;;;;;;;;;31.60;28.80;;;;;;5078388;28;19908;-56
2023/09/30 10:15:56;;;;;;;;;;;31.80;29.10;;;;;;5078498;28;19912;-56
2023/09/30 10:18:22;;;;;;;;;;;32.20;27.30;;;;;;5078319;28;19905;-56
2023/09/30 10:20:48;;;;;;;;;;;31.40;27.20;;;;;;5078104;28;19915;-56
2023/09/30 10:23:19;;;;;;;;;;;31.00;27.90;;;;;;5078257;28;19908;-56
2023/09/30 10:25:47;;;;;;;;;;;30.50;28.90;;;;;;5078335;28;19909;-56
2023/09/30 10:28:31;;;;;;;;;;;31.00;29.30;;;;;;5078263;28;20258;-56
2023/09/30 10:31:26;;;;;;;;;;;31.30;29.10;;;;;;5078195;28;19908;-56
2023/09/30 10:34:01;;;;;;;;;;;31.50;30.50;;;;;;5076936;28;20338;-56
2023/09/30 10:36:27;;;;;;;;;;;31.50;29.00;;;;;;5078035;28;19913;-56
2023/09/30 10:38:53;;;;;;;;;;;31.70;29.00;;;;;;5077881;28;19916;-56
2023/09/30 10:41:38;;;;;;;;;;;31.70;28.20;;;;;;5078055;28;19916;-56
2023/09/30 10:44:22;;;;;;;;;;;31.80;28.50;;;;;;5077864;28;19908;-56
2023/09/30 10:46:49;;;;;;;;;;;31.60;27.90;;;;;;5077895;28;19908;-56
2023/09/30 10:49:21;;;;;;;;;;;31.90;29.10;;;;;;5077209;28;20393;-56
2023/09/30 10:51:47;;;;;;;;;;;32.20;26.80;;;;;;5077703;28;20407;-56
2023/09/30 10:54:13;;;;;;;;;;;31.60;28.60;;;;;;5077580;28;19963;-56
2023/09/30 10:56:39;;;;;;;;;;;31.50;26.60;;;;;;5077641;28;19919;-56
2023/09/30 10:59:05;;;;;;;;;;;31.30;28.70;;;;;;5066505;28;19913;-56
2023/09/30 11:01:34;;;;;;;;;;;31.70;27.60;;;;;;5057640;28;19957;-56
2023/09/30 11:04:03;;;;;;;;;;;31.90;27.60;;;;;;5057441;28;20270;-56
2023/09/30 11:06:29;;;;;;;;;;;31.60;28.10;;;;;;5057459;28;20274;-56
2023/09/30 11:08:59;;;;;;;;;;;31.40;29.10;;;;;;5057240;28;19905;-56
2023/09/30 11:11:42;;;;;;;;;;;31.50;31.00;;;;;;5057508;28;20424;-56
2023/09/30 11:14:34;;;;;;;;;;;31.20;29.50;;;;;;5057236;28;19923;-56
2023/09/30 11:17:01;;;;;;;;;;;31.60;31.10;;;;;;5055885;28;20334;-56
2023/09/30 11:19:37;;;;;;;;;;;31.90;29.60;;;;;;5056719;28;20373;-56
2023/09/30 11:22:03;;;;;;;;;;;32.40;30.00;;;;;;5057243;28;19908;-56
2023/09/30 11:24:29;;;;;;;;;;;32.50;29.80;;;;;;5057104;28;19908;-56
2023/09/30 11:26:55;;;;;;;;;;;32.80;29.10;;;;;;5057192;28;19913;-56
2023/09/30 11:29:21;;;;;;;;;;;32.90;27.80;;;;;;5057268;28;19916;-56
2023/09/30 11:31:48;;;;;;;;;;;32.80;28.00;;;;;;5056360;28;19995;-56
2023/09/30 11:34:18;;;;;;;;;;;32.50;27.50;;;;;;5056929;28;19983;-56
2023/09/30 11:36:49;;;;;;;;;;;32.70;28.50;;;;;;5056954;28;20111;-56
2023/09/30 11:39:24;;;;;;;;;;;32.70;30.60;;;;;;5056797;28;20345;-56
2023/09/30 11:41:50;;;;;;;;;;;32.60;28.50;;;;;;5056852;28;19913;-56
2023/09/30 11:44:17;;;;;;;;;;;32.60;27.50;;;;;;5056982;28;20353;-56
2023/09/30 11:46:53;;;;;;;;;;;32.60;27.50;;;;;;5056697;28;19915;-56
2023/09/30 11:49:28;;;;;;;;;;;32.60;27.80;;;;;;5056113;28;19935;-56
2023/09/30 11:51:54;;;;;;;;;;;32.10;26.50;;;;;;5056668;28;19916;-56
2023/09/30 11:54:21;;;;;;;;;;;31.70;29.30;;;;;;5056420;28;19909;-56
2023/09/30 11:56:47;;;;;;;;;;;32.30;27.10;;;;;;5056646;28;19908;-56
2023/09/30 11:59:13;;;;;;;;;;;31.50;27.10;;;;;;5068763;28;20312;-56
2023/09/30 12:01:39;;;;;;;;;;;32.40;28.70;;;;;;5076340;28;19912;-56
2023/09/30 12:04:06;;;;;;;;;;;31.70;26.30;;;;;;5076402;28;19916;-56
2023/09/30 12:06:34;;;;;;;;;;;32.10;26.90;;;;;;5075826;28;19912;-56
2023/09/30 12:09:03;;;;;;;;;;;32.60;27.80;;;;;;5076180;28;19915;-56
2023/09/30 12:11:29;;;;;;;;;;;32.30;27.20;;;;;;5076316;28;19909;-56
2023/09/30 12:13:55;;;;;;;;;;;32.70;26.80;;;;;;5076073;28;20366;-56
2023/09/30 12:16:21;;;;;;;;;;;32.90;27.20;;;;;;5076147;28;19931;-56
2023/09/30 12:18:47;;;;;;;;;;;32.20;26.40;;;;;;5076015;28;19908;-56
2023/09/30 12:21:19;;;;;;;;;;;32.10;27.50;;;;;;5076178;28;19931;-56
2023/09/30 12:23:45;;;;;;;;;;;32.60;25.20;;;;;;5076368;28;19916;-56
2023/09/30 12:26:12;;;;;;;;;;;32.70;26.40;;;;;;5076144;28;20003;-56
2023/09/30 12:28:40;;;;;;;;;;;32.60;26.40;;;;;;5076380;28;20053;-57
2023/09/30 12:31:06;;;;;;;;;;;31.70;25.70;;;;;;5075372;28;19908;-56
2023/09/30 12:33:35;;;;;;;;;;;30.20;28.30;;;;;;5075896;28;19962;-56
2023/09/30 12:36:00;;;;;;;;;;;30.30;29.80;;;;;;5057918;28;19936;-56
2023/09/30 12:38:28;;;;;;;;;;;29.70;29.70;;;;;;5075750;28;20396;-56
2023/09/30 12:40:54;;;;;;;;;;;29.20;30.60;;;;;;5075892;28;19908;-56
2023/09/30 12:43:21;;;;;;;;;;;28.90;31.30;;;;;;5075833;28;20131;-56
2023/09/30 12:45:47;;;;;;;;;;;28.20;32.80;;;;;;5075864;28;19962;-56
2023/09/30 12:48:14;;;;;;;;;;;27.60;34.20;;;;;;5075479;28;19911;-56
2023/09/30 12:50:40;;;;;;;;;;;27.80;33.60;;;;;;5075042;28;19912;-56
2023/09/30 12:53:06;;;;;;;;;;;27.80;34.80;;;;;;5075683;28;19916;-56
2023/09/30 12:55:32;;;;;;;;;;;27.60;35.80;;;;;;5075419;28;19920;-56
2023/09/30 12:57:59;;;;;;;;;;;27.20;39.00;;;;;;5073731;28;19999;-56
2023/09/30 13:00:26;;;;;;;;;;;26.60;40.70;;;;;;5055667;28;20034;-56
2023/09/30 13:02:52;;;;;;;;;;;26.30;42.40;;;;;;5055695;28;19995;-56
2023/09/30 13:05:18;;;;;;;;;;;26.20;42.40;;;;;;5055556;28;20281;-56
2023/09/30 13:07:44;;;;;;;;;;;26.00;43.60;;;;;;5055479;28;19913;-56
2023/09/30 13:10:10;;;;;;;;;;;25.90;44.60;;;;;;5055455;28;19908;-56
2023/09/30 13:12:36;;;;;;;;;;;25.60;46.00;;;;;;5055345;28;20312;-56
2023/09/30 13:15:02;;;;;;;;;;;25.40;46.60;;;;;;5055509;28;20026;-56
2023/09/30 13:17:28;;;;;;;;;;;25.10;45.20;;;;;;5055440;28;20317;-56
2023/09/30 13:19:54;;;;;;;;;;;24.90;48.80;;;;;;5058388;28;19916;-56
2023/09/30 13:22:21;;;;;;;;;;;24.80;47.60;;;;;;5059419;28;20369;-55
2023/09/30 13:24:46;;;;;;;;;;;25.10;50.50;;;;;;5059415;28;20094;-55
2023/09/30 13:27:15;;;;;;;;;;;25.70;48.50;;;;;;5059361;28;20183;-56
2023/09/30 13:29:41;;;;;;;;;;;26.30;43.80;;;;;;5058985;28;19908;-56
2023/09/30 13:32:09;;;;;;;;;;;26.90;41.60;;;;;;5058509;28;19915;-56
2023/09/30 13:34:34;;;;;;;;;;;27.40;38.70;;;;;;5059050;28;20476;-56
2023/09/30 13:37:00;;;;;;;;;;;27.90;38.40;;;;;;5059258;28;19946;-56
2023/09/30 13:39:27;;;;;;;;;;;28.40;34.90;;;;;;5058899;28;19916;-57
2023/09/30 13:41:53;;;;;;;;;;;28.60;33.80;;;;;;5059209;28;19970;-56
2023/09/30 13:44:19;;;;;;;;;;;28.70;32.40;;;;;;5059029;28;19959;-56
2023/09/30 13:46:45;;;;;;;;;;;28.90;32.20;;;;;;5059359;28;20313;-56
2023/09/30 13:49:11;;;;;;;;;;;29.00;32.70;;;;;;5059095;28;19909;-56
2023/09/30 13:51:38;;;;;;;;;;;29.20;31.60;;;;;;5059078;28;20026;-56
2023/09/30 13:54:07;;;;;;;;;;;29.30;33.60;;;;;;5058649;28;19959;-56
2023/09/30 13:56:33;;;;;;;;;;;29.10;28.30;;;;;;5058879;28;19962;-56
2023/09/30 13:58:59;;;;;;;;;;;29.20;31.70;;;;;;5069000;28;19909;-56
2023/09/30 14:01:25;;;;;;;;;;;29.40;31.20;;;;;;5078211;28;19908;-56
2023/09/30 14:03:55;;;;;;;;;;;29.50;32.20;;;;;;5078618;28;20296;-56
2023/09/30 14:06:21;;;;;;;;;;;29.70;28.60;;;;;;5078557;28;19915;-56
2023/09/30 14:08:47;;;;;;;;;;;29.50;32.80;;;;;;5078613;28;19901;-56
2023/09/30 14:11:13;;;;;;;;;;;29.00;28.80;;;;;;5078662;28;20254;-56
2023/09/30 14:13:39;;;;;;;;;;;29.10;29.50;;;;;;5078271;28;19919;-56
2023/09/30 14:16:05;;;;;;;;;;;29.30;30.50;;;;;;5078361;28;19908;-56